sensor_id;sensor_type;location;lat;lon;timestamp;pressure;altitude;pressure_sealevel;temperature;humidity
8039;BME280;4062;49.844;8.120;2022-09-09T00:00:24;98802.63;;;19.76;57.85
8039;BME280;4062;49.844;8.120;2022-09-09T00:02:28;98798.25;;;19.75;57.86
8039;BME280;4062;49.844;8.120;2022-09-09T00:04:32;98794.59;;;19.76;57.71
8039;BME280;4062;49.844;8.120;2022-09-09T00:07:15;98796.44;;;19.75;57.62
8039;BME280;4062;49.844;8.120;2022-09-09T00:09:29;98792.88;;;19.75;57.74
8039;BME280;4062;49.844;8.120;2022-09-09T00:12:13;98801.78;;;19.75;57.91
8039;BME280;4062;49.844;8.120;2022-09-09T00:16:43;98791.91;;;19.76;57.65
8039;BME280;4062;49.844;8.120;2022-09-09T00:21:17;98792.88;;;19.75;57.89
8039;BME280;4062;49.844;8.120;2022-09-09T00:23:30;98799.13;;;19.75;57.94
8039;BME280;4062;49.844;8.120;2022-09-09T00:25:50;98799.13;;;19.75;57.72
8039;BME280;4062;49.844;8.120;2022-09-09T00:27:54;98799.13;;;19.75;57.86
8039;BME280;4062;49.844;8.120;2022-09-09T00:32:24;98794.72;;;19.74;57.81
8039;BME280;4062;49.844;8.120;2022-09-09T00:34:28;98795.56;;;19.75;57.85
8039;BME280;4062;49.844;8.120;2022-09-09T00:36:31;98793.75;;;19.75;57.79
8039;BME280;4062;49.844;8.120;2022-09-09T00:39:00;98784.00;;;19.74;57.66
8039;BME280;4062;49.844;8.120;2022-09-09T00:41:40;98782.16;;;19.75;57.95
8039;BME280;4062;49.844;8.120;2022-09-09T00:44:20;98784.84;;;19.75;57.60
8039;BME280;4062;49.844;8.120;2022-09-09T00:46:59;98784.84;;;19.75;57.91
8039;BME280;4062;49.844;8.120;2022-09-09T00:49:28;98787.53;;;19.75;57.65
8039;BME280;4062;49.844;8.120;2022-09-09T00:56:57;98784.84;;;19.75;57.66
8039;BME280;4062;49.844;8.120;2022-09-09T01:01:13;98789.34;;;19.74;57.68
8039;BME280;4062;49.844;8.120;2022-09-09T01:03:37;98779.47;;;19.75;57.57
8039;BME280;4062;49.844;8.120;2022-09-09T01:08:14;98783.03;;;19.75;57.91
8039;BME280;4062;49.844;8.120;2022-09-09T01:10:37;98772.44;;;19.74;57.54
8039;BME280;4062;49.844;8.120;2022-09-09T01:12:43;98774.13;;;19.75;57.82
8039;BME280;4062;49.844;8.120;2022-09-09T01:14:55;98773.28;;;19.74;57.57
8039;BME280;4062;49.844;8.120;2022-09-09T01:17:17;98779.47;;;19.75;57.56
8039;BME280;4062;49.844;8.120;2022-09-09T01:20:31;98776.81;;;19.75;57.75
8039;BME280;4062;49.844;8.120;2022-09-09T01:25:18;98776.81;;;19.75;57.79
8039;BME280;4062;49.844;8.120;2022-09-09T01:27:21;98775.97;;;19.74;57.65
8039;BME280;4062;49.844;8.120;2022-09-09T01:29:24;98773.28;;;19.74;57.56
8039;BME280;4062;49.844;8.120;2022-09-09T01:31:40;98774.13;;;19.75;57.61
8039;BME280;4062;49.844;8.120;2022-09-09T01:33:41;98773.28;;;19.74;57.98
8039;BME280;4062;49.844;8.120;2022-09-09T01:35:59;98772.44;;;19.74;57.63
8039;BME280;4062;49.844;8.120;2022-09-09T01:38:01;98769.75;;;19.74;57.69
8039;BME280;4062;49.844;8.120;2022-09-09T01:40:02;98771.44;;;19.75;57.81
8039;BME280;4062;49.844;8.120;2022-09-09T01:42:06;98770.59;;;19.74;57.62
8039;BME280;4062;49.844;8.120;2022-09-09T01:44:08;98781.31;;;19.74;58.01
8039;BME280;4062;49.844;8.120;2022-09-09T01:46:10;98779.47;;;19.75;57.82
8039;BME280;4062;49.844;8.120;2022-09-09T01:48:12;98775.13;;;19.74;57.80
8039;BME280;4062;49.844;8.120;2022-09-09T01:50:16;98778.63;;;19.74;57.78
8039;BME280;4062;49.844;8.120;2022-09-09T01:52:17;98784.97;;;19.73;57.69
8039;BME280;4062;49.844;8.120;2022-09-09T01:54:19;98783.16;;;19.74;57.81
8039;BME280;4062;49.844;8.120;2022-09-09T02:01:45;98784.00;;;19.74;57.65
8039;BME280;4062;49.844;8.120;2022-09-09T02:03:52;98775.13;;;19.74;57.85
8039;BME280;4062;49.844;8.120;2022-09-09T02:08:23;98784.00;;;19.74;57.99
8039;BME280;4062;49.844;8.120;2022-09-09T02:12:44;98791.19;;;19.74;57.59
8039;BME280;4062;49.844;8.120;2022-09-09T02:14:52;98792.03;;;19.74;57.86
8039;BME280;4062;49.844;8.120;2022-09-09T02:17:09;98781.31;;;19.74;57.71
8039;BME280;4062;49.844;8.120;2022-09-09T02:19:28;98783.16;;;19.74;57.71
8039;BME280;4062;49.844;8.120;2022-09-09T02:21:31;98777.78;;;19.74;57.91
8039;BME280;4062;49.844;8.120;2022-09-09T02:23:36;98782.28;;;19.73;57.73
8039;BME280;4062;49.844;8.120;2022-09-09T02:25:37;98781.31;;;19.74;57.84
8039;BME280;4062;49.844;8.120;2022-09-09T02:27:41;98778.75;;;19.73;57.95
8039;BME280;4062;49.844;8.120;2022-09-09T02:29:43;98783.16;;;19.74;57.92
8039;BME280;4062;49.844;8.120;2022-09-09T02:31:47;98784.00;;;19.74;57.51
8039;BME280;4062;49.844;8.120;2022-09-09T02:34:00;98791.19;;;19.74;57.97
8039;BME280;4062;49.844;8.120;2022-09-09T02:36:02;98791.19;;;19.74;57.69
8039;BME280;4062;49.844;8.120;2022-09-09T02:40:10;98788.50;;;19.74;57.76
8039;BME280;4062;49.844;8.120;2022-09-09T02:42:12;98784.00;;;19.74;57.47
8039;BME280;4062;49.844;8.120;2022-09-09T02:44:17;98779.59;;;19.73;57.79
8039;BME280;4062;49.844;8.120;2022-09-09T02:49:41;98783.16;;;19.74;58.06
8039;BME280;4062;49.844;8.120;2022-09-09T02:54:25;98775.13;;;19.74;57.87
8039;BME280;4062;49.844;8.120;2022-09-09T02:56:31;98774.25;;;19.73;57.89
8039;BME280;4062;49.844;8.120;2022-09-09T02:58:35;98775.13;;;19.74;57.69
8039;BME280;4062;49.844;8.120;2022-09-09T03:00:38;98770.72;;;19.73;57.77
8039;BME280;4062;49.844;8.120;2022-09-09T03:02:40;98768.03;;;19.73;57.87
8039;BME280;4062;49.844;8.120;2022-09-09T03:04:42;98760.84;;;19.73;57.72
8039;BME280;4062;49.844;8.120;2022-09-09T03:06:44;98766.19;;;19.73;57.68
8039;BME280;4062;49.844;8.120;2022-09-09T03:08:45;98768.88;;;19.73;57.48
8039;BME280;4062;49.844;8.120;2022-09-09T03:10:46;98771.56;;;19.73;57.76
8039;BME280;4062;49.844;8.120;2022-09-09T03:12:46;98772.44;;;19.74;57.78
8039;BME280;4062;49.844;8.120;2022-09-09T03:14:47;98778.75;;;19.73;57.75
8039;BME280;4062;49.844;8.120;2022-09-09T03:16:48;98783.16;;;19.74;57.87
8039;BME280;4062;49.844;8.120;2022-09-09T03:18:49;98780.47;;;19.74;57.65
8039;BME280;4062;49.844;8.120;2022-09-09T03:20:49;98785.84;;;19.74;57.47
8039;BME280;4062;49.844;8.120;2022-09-09T03:22:55;98779.59;;;19.73;57.70
8039;BME280;4062;49.844;8.120;2022-09-09T03:24:56;98786.69;;;19.74;57.91
8039;BME280;4062;49.844;8.120;2022-09-09T03:26:57;98795.56;;;19.75;57.56
8039;BME280;4062;49.844;8.120;2022-09-09T03:28:57;98782.28;;;19.73;57.66
8039;BME280;4062;49.844;8.120;2022-09-09T03:31:05;98786.78;;;19.73;58.02
8039;BME280;4062;49.844;8.120;2022-09-09T03:33:06;98781.44;;;19.73;57.57
8039;BME280;4062;49.844;8.120;2022-09-09T03:35:07;98786.69;;;19.74;57.88
8039;BME280;4062;49.844;8.120;2022-09-09T03:37:08;98783.16;;;19.74;57.82
8039;BME280;4062;49.844;8.120;2022-09-09T03:39:09;98782.28;;;19.73;57.82
8039;BME280;4062;49.844;8.120;2022-09-09T03:41:09;98793.88;;;19.74;57.66
8039;BME280;4062;49.844;8.120;2022-09-09T03:43:10;98794.84;;;19.73;57.88
8039;BME280;4062;49.844;8.120;2022-09-09T03:45:11;98791.19;;;19.74;57.95
8039;BME280;4062;49.844;8.120;2022-09-09T03:47:12;98791.19;;;19.74;57.88
8039;BME280;4062;49.844;8.120;2022-09-09T03:49:13;98785.84;;;19.74;57.97
8039;BME280;4062;49.844;8.120;2022-09-09T03:51:14;98785.84;;;19.74;57.69
8039;BME280;4062;49.844;8.120;2022-09-09T03:53:18;98781.44;;;19.73;58.01
8039;BME280;4062;49.844;8.120;2022-09-09T03:55:19;98774.25;;;19.73;57.80
8039;BME280;4062;49.844;8.120;2022-09-09T03:57:20;98772.53;;;19.72;57.96
8039;BME280;4062;49.844;8.120;2022-09-09T03:59:22;98765.34;;;19.73;57.76
8039;BME280;4062;49.844;8.120;2022-09-09T04:01:23;98768.03;;;19.73;57.60
8039;BME280;4062;49.844;8.120;2022-09-09T04:03:25;98768.03;;;19.73;57.56
8039;BME280;4062;49.844;8.120;2022-09-09T04:05:25;98762.69;;;19.73;57.86
8039;BME280;4062;49.844;8.120;2022-09-09T04:07:26;98771.56;;;19.73;57.91
8039;BME280;4062;49.844;8.120;2022-09-09T04:09:28;98771.56;;;19.73;57.49
8039;BME280;4062;49.844;8.120;2022-09-09T04:11:29;98776.06;;;19.73;57.46
8039;BME280;4062;49.844;8.120;2022-09-09T04:13:30;98778.63;;;19.74;57.49
8039;BME280;4062;49.844;8.120;2022-09-09T04:15:31;98774.25;;;19.73;57.54
8039;BME280;4062;49.844;8.120;2022-09-09T04:17:32;98772.44;;;19.74;57.86
8039;BME280;4062;49.844;8.120;2022-09-09T04:19:33;98775.19;;;19.72;57.66
8039;BME280;4062;49.844;8.120;2022-09-09T04:21:34;98775.19;;;19.72;57.66
8039;BME280;4062;49.844;8.120;2022-09-09T04:23:34;98776.06;;;19.73;57.84
8039;BME280;4062;49.844;8.120;2022-09-09T04:25:36;98774.34;;;19.72;57.74
8039;BME280;4062;49.844;8.120;2022-09-09T04:27:38;98777.88;;;19.72;57.74
8039;BME280;4062;49.844;8.120;2022-09-09T04:29:39;98786.78;;;19.73;57.64
8039;BME280;4062;49.844;8.120;2022-09-09T04:31:39;98784.13;;;19.73;58.01
8039;BME280;4062;49.844;8.120;2022-09-09T04:33:42;98784.13;;;19.73;57.71
8039;BME280;4062;49.844;8.120;2022-09-09T04:35:48;98786.78;;;19.73;57.76
8039;BME280;4062;49.844;8.120;2022-09-09T04:37:49;98789.47;;;19.73;58.04
8039;BME280;4062;49.844;8.120;2022-09-09T04:39:50;98786.78;;;19.73;57.61
8039;BME280;4062;49.844;8.120;2022-09-09T04:41:50;98786.78;;;19.73;57.74
8039;BME280;4062;49.844;8.120;2022-09-09T04:43:51;98794.84;;;19.73;57.84
8039;BME280;4062;49.844;8.120;2022-09-09T04:45:53;98796.66;;;19.72;57.82
8039;BME280;4062;49.844;8.120;2022-09-09T04:47:54;98798.47;;;19.72;57.99
8039;BME280;4062;49.844;8.120;2022-09-09T04:49:55;98802.88;;;19.73;57.90
8039;BME280;4062;49.844;8.120;2022-09-09T04:51:57;98810.91;;;19.73;57.52
8039;BME280;4062;49.844;8.120;2022-09-09T04:53:58;98808.25;;;19.73;57.84
8039;BME280;4062;49.844;8.120;2022-09-09T04:56:07;98801.91;;;19.74;57.63
8039;BME280;4062;49.844;8.120;2022-09-09T04:58:08;98809.09;;;19.73;57.85
8039;BME280;4062;49.844;8.120;2022-09-09T05:00:10;98803.72;;;19.73;57.89
8039;BME280;4062;49.844;8.120;2022-09-09T05:02:11;98808.25;;;19.73;57.81
8039;BME280;4062;49.844;8.120;2022-09-09T05:04:11;98807.28;;;19.74;57.71
8039;BME280;4062;49.844;8.120;2022-09-09T05:06:15;98807.38;;;19.72;57.73
8039;BME280;4062;49.844;8.120;2022-09-09T05:08:16;98812.72;;;19.72;57.94
8039;BME280;4062;49.844;8.120;2022-09-09T05:10:16;98818.97;;;19.73;57.77
8039;BME280;4062;49.844;8.120;2022-09-09T05:12:18;98816.28;;;19.73;57.84
8039;BME280;4062;49.844;8.120;2022-09-09T05:14:19;98802.88;;;19.73;57.57
8039;BME280;4062;49.844;8.120;2022-09-09T05:16:21;98810.91;;;19.73;57.81
8039;BME280;4062;49.844;8.120;2022-09-09T05:18:23;98805.56;;;19.73;57.52
8039;BME280;4062;49.844;8.120;2022-09-09T05:20:23;98808.25;;;19.73;57.75
8039;BME280;4062;49.844;8.120;2022-09-09T05:22:24;98810.03;;;19.72;57.73
8039;BME280;4062;49.844;8.120;2022-09-09T05:24:25;98810.03;;;19.72;57.63
8039;BME280;4062;49.844;8.120;2022-09-09T05:26:26;98812.72;;;19.72;57.69
8039;BME280;4062;49.844;8.120;2022-09-09T05:28:27;98815.41;;;19.72;57.88
8039;BME280;4062;49.844;8.120;2022-09-09T05:30:28;98821.63;;;19.73;57.84
8039;BME280;4062;49.844;8.120;2022-09-09T05:32:30;98815.41;;;19.72;57.86
8039;BME280;4062;49.844;8.120;2022-09-09T05:34:33;98821.63;;;19.73;57.87
8039;BME280;4062;49.844;8.120;2022-09-09T05:36:34;98822.47;;;19.73;57.91
8039;BME280;4062;49.844;8.120;2022-09-09T05:38:35;98824.31;;;19.73;57.71
8039;BME280;4062;49.844;8.120;2022-09-09T05:40:36;98820.75;;;19.72;57.69
8039;BME280;4062;49.844;8.120;2022-09-09T05:42:37;98821.63;;;19.73;57.48
8039;BME280;4062;49.844;8.120;2022-09-09T05:44:37;98816.28;;;19.73;57.95
8039;BME280;4062;49.844;8.120;2022-09-09T05:46:38;98819.91;;;19.72;57.76
8039;BME280;4062;49.844;8.120;2022-09-09T05:48:44;98826.13;;;19.72;57.93
8039;BME280;4062;49.844;8.120;2022-09-09T05:50:53;98826.13;;;19.72;57.86
8039;BME280;4062;49.844;8.120;2022-09-09T05:52:54;98826.13;;;19.72;57.61
8039;BME280;4062;49.844;8.120;2022-09-09T05:54:55;98828.81;;;19.72;57.94
8039;BME280;4062;49.844;8.120;2022-09-09T05:56:57;98828.81;;;19.72;57.56
8039;BME280;4062;49.844;8.120;2022-09-09T05:58:58;98835.03;;;19.73;57.71
8039;BME280;4062;49.844;8.120;2022-09-09T06:01:08;98832.34;;;19.73;57.82
8039;BME280;4062;49.844;8.120;2022-09-09T06:03:13;98834.16;;;19.72;57.55
8039;BME280;4062;49.844;8.120;2022-09-09T06:05:14;98829.69;;;19.73;57.66
8039;BME280;4062;49.844;8.120;2022-09-09T06:07:15;98836.84;;;19.72;57.74
8039;BME280;4062;49.844;8.120;2022-09-09T06:09:17;98833.31;;;19.72;57.71
8039;BME280;4062;49.844;8.120;2022-09-09T06:11:24;98837.72;;;19.73;57.89
8039;BME280;4062;49.844;8.120;2022-09-09T06:13:25;98842.22;;;19.72;58.05
8039;BME280;4062;49.844;8.120;2022-09-09T06:15:25;98843.09;;;19.73;57.61
8039;BME280;4062;49.844;8.120;2022-09-09T06:17:27;98841.38;;;19.72;57.76
8039;BME280;4062;49.844;8.120;2022-09-09T06:19:28;98843.09;;;19.73;58.04
8039;BME280;4062;49.844;8.120;2022-09-09T06:21:34;98840.41;;;19.73;57.79
8039;BME280;4062;49.844;8.120;2022-09-09T06:23:39;98843.09;;;19.73;57.96
8039;BME280;4062;49.844;8.120;2022-09-09T06:25:40;98841.25;;;19.73;57.96
8039;BME280;4062;49.844;8.120;2022-09-09T06:27:41;98832.34;;;19.73;57.81
8039;BME280;4062;49.844;8.120;2022-09-09T06:29:42;98834.16;;;19.72;57.81
8039;BME280;4062;49.844;8.120;2022-09-09T06:31:43;98833.19;;;19.73;57.61
8039;BME280;4062;49.844;8.120;2022-09-09T06:33:44;98824.31;;;19.73;57.51
8039;BME280;4062;49.844;8.120;2022-09-09T06:35:52;98825.28;;;19.72;57.95
8039;BME280;4062;49.844;8.120;2022-09-09T06:37:53;98837.72;;;19.73;57.81
8039;BME280;4062;49.844;8.120;2022-09-09T06:39:54;98832.34;;;19.73;57.81
8039;BME280;4062;49.844;8.120;2022-09-09T06:41:55;98840.41;;;19.73;57.92
8039;BME280;4062;49.844;8.120;2022-09-09T06:43:56;98838.56;;;19.73;57.96
8039;BME280;4062;49.844;8.120;2022-09-09T06:46:02;98835.88;;;19.73;57.64
8039;BME280;4062;49.844;8.120;2022-09-09T06:48:04;98842.13;;;19.74;57.88
8039;BME280;4062;49.844;8.120;2022-09-09T06:50:05;98839.53;;;19.72;57.62
8039;BME280;4062;49.844;8.120;2022-09-09T06:52:08;98828.81;;;19.72;57.58
8039;BME280;4062;49.844;8.120;2022-09-09T06:54:10;98826.13;;;19.72;57.77
8039;BME280;4062;49.844;8.120;2022-09-09T06:56:27;98829.69;;;19.73;57.61
8039;BME280;4062;49.844;8.120;2022-09-09T06:58:29;98823.44;;;19.72;57.62
8039;BME280;4062;49.844;8.120;2022-09-09T07:00:30;98826.13;;;19.72;57.88
8039;BME280;4062;49.844;8.120;2022-09-09T07:02:30;98824.31;;;19.73;57.73
8039;BME280;4062;49.844;8.120;2022-09-09T07:04:31;98823.44;;;19.72;57.49
8039;BME280;4062;49.844;8.120;2022-09-09T07:06:35;98831.41;;;19.74;57.62
8039;BME280;4062;49.844;8.120;2022-09-09T07:08:36;98840.41;;;19.73;57.73
8039;BME280;4062;49.844;8.120;2022-09-09T07:10:37;98836.84;;;19.72;57.54
8039;BME280;4062;49.844;8.120;2022-09-09T07:12:37;98841.25;;;19.73;57.58
8039;BME280;4062;49.844;8.120;2022-09-09T07:14:38;98849.28;;;19.73;57.75
8039;BME280;4062;49.844;8.120;2022-09-09T07:16:41;98851.97;;;19.73;57.86
8039;BME280;4062;49.844;8.120;2022-09-09T07:18:42;98839.53;;;19.72;57.68
8039;BME280;4062;49.844;8.120;2022-09-09T07:20:54;98837.72;;;19.73;57.87
8039;BME280;4062;49.844;8.120;2022-09-09T07:22:58;98841.25;;;19.73;57.62
8039;BME280;4062;49.844;8.120;2022-09-09T07:24:59;98841.25;;;19.73;57.67
8039;BME280;4062;49.844;8.120;2022-09-09T07:27:00;98845.75;;;19.73;57.69
8039;BME280;4062;49.844;8.120;2022-09-09T07:29:01;98841.25;;;19.73;57.80
8039;BME280;4062;49.844;8.120;2022-09-09T07:31:02;98843.94;;;19.73;57.70
8039;BME280;4062;49.844;8.120;2022-09-09T07:33:04;98843.81;;;19.75;57.84
8039;BME280;4062;49.844;8.120;2022-09-09T07:35:05;98844.81;;;19.74;57.87
8039;BME280;4062;49.844;8.120;2022-09-09T07:37:06;98848.31;;;19.74;57.71
8039;BME280;4062;49.844;8.120;2022-09-09T07:39:12;98843.94;;;19.73;57.88
8039;BME280;4062;49.844;8.120;2022-09-09T07:41:19;98846.47;;;19.75;58.06
8039;BME280;4062;49.844;8.120;2022-09-09T07:43:26;98851.00;;;19.74;57.66
8039;BME280;4062;49.844;8.120;2022-09-09T07:45:27;98861.59;;;19.76;57.78
8039;BME280;4062;49.844;8.120;2022-09-09T07:47:31;98854.53;;;19.75;57.97
8039;BME280;4062;49.844;8.120;2022-09-09T07:49:32;98854.53;;;19.75;57.81
8039;BME280;4062;49.844;8.120;2022-09-09T07:51:45;98855.41;;;19.75;58.01
8039;BME280;4062;49.844;8.120;2022-09-09T07:53:46;98844.69;;;19.75;57.75
8039;BME280;4062;49.844;8.120;2022-09-09T07:55:47;98849.06;;;19.76;57.82
8039;BME280;4062;49.844;8.120;2022-09-09T07:57:48;98854.44;;;19.76;57.71
8039;BME280;4062;49.844;8.120;2022-09-09T07:59:49;98865.91;;;19.78;57.47
8039;BME280;4062;49.844;8.120;2022-09-09T08:01:51;98865.03;;;19.78;57.46
8039;BME280;4062;49.844;8.120;2022-09-09T08:04:00;98859.69;;;19.78;57.65
8039;BME280;4062;49.844;8.120;2022-09-09T08:06:04;98869.56;;;19.77;57.78
8039;BME280;4062;49.844;8.120;2022-09-09T08:08:07;98872.13;;;19.79;57.69
8039;BME280;4062;49.844;8.120;2022-09-09T08:10:08;98874.91;;;19.77;57.83
8039;BME280;4062;49.844;8.120;2022-09-09T08:12:10;98880.28;;;19.77;57.78
8039;BME280;4062;49.844;8.120;2022-09-09T08:14:12;98879.41;;;19.77;57.70
8039;BME280;4062;49.844;8.120;2022-09-09T08:16:19;98879.41;;;19.77;57.58
8039;BME280;4062;49.844;8.120;2022-09-09T08:18:23;98876.72;;;19.77;57.43
8039;BME280;4062;49.844;8.120;2022-09-09T08:20:24;98877.69;;;19.76;57.74
8039;BME280;4062;49.844;8.120;2022-09-09T08:22:24;98877.59;;;19.77;57.60
8039;BME280;4062;49.844;8.120;2022-09-09T08:24:26;98890.13;;;19.77;57.79
8039;BME280;4062;49.844;8.120;2022-09-09T08:26:30;98887.44;;;19.77;57.76
8039;BME280;4062;49.844;8.120;2022-09-09T08:28:31;98877.69;;;19.76;57.47
8039;BME280;4062;49.844;8.120;2022-09-09T08:30:32;98885.72;;;19.76;57.60
8039;BME280;4062;49.844;8.120;2022-09-09T08:32:33;98883.91;;;19.76;57.65
8039;BME280;4062;49.844;8.120;2022-09-09T08:34:35;98881.25;;;19.76;57.77
8039;BME280;4062;49.844;8.120;2022-09-09T08:36:44;98880.38;;;19.76;57.62
8039;BME280;4062;49.844;8.120;2022-09-09T08:38:50;98886.59;;;19.76;57.76
8039;BME280;4062;49.844;8.120;2022-09-09T08:40:53;98883.91;;;19.76;57.74
8039;BME280;4062;49.844;8.120;2022-09-09T08:43:00;98887.44;;;19.77;57.60
8039;BME280;4062;49.844;8.120;2022-09-09T08:45:31;98888.31;;;19.77;57.79
8039;BME280;4062;49.844;8.120;2022-09-09T08:50:16;98887.44;;;19.77;57.73
8039;BME280;4062;49.844;8.120;2022-09-09T08:52:36;98883.91;;;19.76;57.59
8039;BME280;4062;49.844;8.120;2022-09-09T08:54:38;98886.47;;;19.78;57.84
8039;BME280;4062;49.844;8.120;2022-09-09T08:56:40;98887.34;;;19.78;57.72
8039;BME280;4062;49.844;8.120;2022-09-09T08:58:50;98893.56;;;19.79;57.62
8039;BME280;4062;49.844;8.120;2022-09-09T09:06:06;98888.97;;;19.81;57.57
8039;BME280;4062;49.844;8.120;2022-09-09T09:08:30;98882.72;;;19.80;57.57
8039;BME280;4062;49.844;8.120;2022-09-09T09:10:48;98884.44;;;19.81;57.69
8039;BME280;4062;49.844;8.120;2022-09-09T09:12:49;98885.31;;;19.82;57.35
8039;BME280;4062;49.844;8.120;2022-09-09T09:14:51;98887.03;;;19.83;57.38
8039;BME280;4062;49.844;8.120;2022-09-09T09:18:57;98870.94;;;19.83;57.64
8039;BME280;4062;49.844;8.120;2022-09-09T09:21:06;98879.00;;;19.83;57.66
8039;BME280;4062;49.844;8.120;2022-09-09T09:23:21;98878.00;;;19.84;57.38
8039;BME280;4062;49.844;8.120;2022-09-09T09:25:30;98880.69;;;19.84;57.66
8039;BME280;4062;49.844;8.120;2022-09-09T09:29:40;98881.56;;;19.84;57.27
8039;BME280;4062;49.844;8.120;2022-09-09T09:31:52;98874.38;;;19.85;57.73
8039;BME280;4062;49.844;8.120;2022-09-09T09:33:56;98873.44;;;19.86;57.34
8039;BME280;4062;49.844;8.120;2022-09-09T09:35:59;98871.63;;;19.87;57.35
8039;BME280;4062;49.844;8.120;2022-09-09T09:38:00;98872.47;;;19.87;57.53
8039;BME280;4062;49.844;8.120;2022-09-09T09:40:15;98878.69;;;19.88;57.63
8039;BME280;4062;49.844;8.120;2022-09-09T09:42:17;98869.66;;;19.89;57.57
8039;BME280;4062;49.844;8.120;2022-09-09T09:44:27;98870.53;;;19.89;57.44
8039;BME280;4062;49.844;8.120;2022-09-09T09:46:28;98877.63;;;19.90;57.48
8039;BME280;4062;49.844;8.120;2022-09-09T09:48:29;98865.16;;;19.89;57.68
8039;BME280;4062;49.844;8.120;2022-09-09T09:50:32;98872.25;;;19.90;57.66
8039;BME280;4062;49.844;8.120;2022-09-09T09:52:33;98869.66;;;19.89;57.43
8039;BME280;4062;49.844;8.120;2022-09-09T09:54:39;98875.91;;;19.89;57.50
8039;BME280;4062;49.844;8.120;2022-09-09T09:56:43;98870.53;;;19.89;57.68
8039;BME280;4062;49.844;8.120;2022-09-09T09:58:52;98873.22;;;19.89;57.50
8039;BME280;4062;49.844;8.120;2022-09-09T10:00:54;98870.53;;;19.89;57.33
8039;BME280;4062;49.844;8.120;2022-09-09T10:02:55;98871.38;;;19.90;57.25
8039;BME280;4062;49.844;8.120;2022-09-09T10:07:33;98866.91;;;19.90;57.60
8039;BME280;4062;49.844;8.120;2022-09-09T10:09:34;98870.53;;;19.89;57.52
8039;BME280;4062;49.844;8.120;2022-09-09T10:15:10;98870.53;;;19.89;57.38
8039;BME280;4062;49.844;8.120;2022-09-09T10:22:49;98864.28;;;19.89;57.40
8039;BME280;4062;49.844;8.120;2022-09-09T10:36:49;98852.72;;;19.88;57.47
8039;BME280;4062;49.844;8.120;2022-09-09T10:39:05;98850.91;;;19.89;57.59
8039;BME280;4062;49.844;8.120;2022-09-09T10:42:03;98855.28;;;19.90;57.69
8039;BME280;4062;49.844;8.120;2022-09-09T10:47:26;98850.06;;;19.88;57.13
8039;BME280;4062;49.844;8.120;2022-09-09T10:52:21;98842.84;;;19.89;57.58
8039;BME280;4062;49.844;8.120;2022-09-09T10:54:38;98848.34;;;19.87;57.53
8039;BME280;4062;49.844;8.120;2022-09-09T10:56:44;98857.25;;;19.88;57.67
8039;BME280;4062;49.844;8.120;2022-09-09T10:59:02;98855.41;;;19.88;57.64
8039;BME280;4062;49.844;8.120;2022-09-09T11:01:35;98855.41;;;19.88;57.53
8039;BME280;4062;49.844;8.120;2022-09-09T11:03:40;98867.09;;;19.87;57.36
8039;BME280;4062;49.844;8.120;2022-09-09T11:05:48;98856.38;;;19.87;57.61
8039;BME280;4062;49.844;8.120;2022-09-09T11:08:06;98856.38;;;19.87;57.39
8039;BME280;4062;49.844;8.120;2022-09-09T11:12:45;98846.63;;;19.86;57.47
8039;BME280;4062;49.844;8.120;2022-09-09T11:15:39;98850.16;;;19.87;57.63
8039;BME280;4062;49.844;8.120;2022-09-09T11:17:24;98843.94;;;19.86;57.68
8039;BME280;4062;49.844;8.120;2022-09-09T11:21:42;98843.94;;;19.86;57.51
8039;BME280;4062;49.844;8.120;2022-09-09T11:23:54;98840.41;;;19.86;57.61
8039;BME280;4062;49.844;8.120;2022-09-09T11:26:00;98840.41;;;19.86;57.50
8039;BME280;4062;49.844;8.120;2022-09-09T11:28:32;98831.50;;;19.85;57.36
8039;BME280;4062;49.844;8.120;2022-09-09T11:36:01;98845.78;;;19.86;57.65
8039;BME280;4062;49.844;8.120;2022-09-09T11:38:26;98850.25;;;19.85;57.40
8039;BME280;4062;49.844;8.120;2022-09-09T11:40:27;98847.56;;;19.85;57.40
8039;BME280;4062;49.844;8.120;2022-09-09T11:42:28;98841.34;;;19.84;57.52
8039;BME280;4062;49.844;8.120;2022-09-09T11:44:30;98860.09;;;19.84;57.69
8039;BME280;4062;49.844;8.120;2022-09-09T11:46:35;98848.50;;;19.84;57.41
8039;BME280;4062;49.844;8.120;2022-09-09T11:48:41;98853.88;;;19.84;57.61
8039;BME280;4062;49.844;8.120;2022-09-09T11:50:46;98856.56;;;19.84;57.65
8039;BME280;4062;49.844;8.120;2022-09-09T11:55:33;98866.44;;;19.83;57.84
8039;BME280;4062;49.844;8.120;2022-09-09T11:57:36;98866.44;;;19.83;57.36
8039;BME280;4062;49.844;8.120;2022-09-09T11:59:37;98887.03;;;19.83;57.29
8039;BME280;4062;49.844;8.120;2022-09-09T12:01:42;98892.41;;;19.83;57.83
8039;BME280;4062;49.844;8.120;2022-09-09T12:03:50;98887.88;;;19.83;57.82
8039;BME280;4062;49.844;8.120;2022-09-09T12:05:56;98887.88;;;19.83;57.47
8039;BME280;4062;49.844;8.120;2022-09-09T12:07:58;98892.41;;;19.83;57.83
8039;BME280;4062;49.844;8.120;2022-09-09T12:10:39;98909.31;;;19.83;57.43
8039;BME280;4062;49.844;8.120;2022-09-09T12:12:40;98911.16;;;19.83;57.36
8039;BME280;4062;49.844;8.120;2022-09-09T12:16:41;98901.41;;;19.82;57.86
8039;BME280;4062;49.844;8.120;2022-09-09T12:18:43;98896.03;;;19.82;57.56
8039;BME280;4062;49.844;8.120;2022-09-09T12:28:20;98886.16;;;19.82;57.55
8039;BME280;4062;49.844;8.120;2022-09-09T12:30:22;98876.41;;;19.81;57.60
8039;BME280;4062;49.844;8.120;2022-09-09T12:32:29;98880.91;;;19.81;57.45
8039;BME280;4062;49.844;8.120;2022-09-09T12:34:40;98888.00;;;19.82;57.82
8039;BME280;4062;49.844;8.120;2022-09-09T12:36:44;98885.41;;;19.80;57.58
8039;BME280;4062;49.844;8.120;2022-09-09T12:38:47;98876.41;;;19.81;57.58
8039;BME280;4062;49.844;8.120;2022-09-09T12:40:58;98875.56;;;19.81;57.69
8039;BME280;4062;49.844;8.120;2022-09-09T12:42:59;98873.72;;;19.81;57.85
8039;BME280;4062;49.844;8.120;2022-09-09T12:45:03;98884.44;;;19.81;57.92
8039;BME280;4062;49.844;8.120;2022-09-09T12:47:19;98883.59;;;19.81;57.70
8039;BME280;4062;49.844;8.120;2022-09-09T12:49:30;98883.59;;;19.81;57.79
8039;BME280;4062;49.844;8.120;2022-09-09T12:51:34;98876.41;;;19.81;57.52
8039;BME280;4062;49.844;8.120;2022-09-09T12:53:36;98874.69;;;19.80;57.75
8039;BME280;4062;49.844;8.120;2022-09-09T12:55:48;98873.72;;;19.81;57.58
8039;BME280;4062;49.844;8.120;2022-09-09T12:57:49;98863.00;;;19.81;57.76
8039;BME280;4062;49.844;8.120;2022-09-09T13:00:12;98859.47;;;19.81;57.34
8039;BME280;4062;49.844;8.120;2022-09-09T13:02:24;98861.19;;;19.82;57.73
8039;BME280;4062;49.844;8.120;2022-09-09T13:04:26;98863.00;;;19.81;57.63
8039;BME280;4062;49.844;8.120;2022-09-09T13:06:31;98853.22;;;19.80;57.84